Hillcrest, Illinois
Current Conditions -  °F | °C
As of 8:35 PM on Wednesday 22 Oct 2014 (Local Time) from KRPJ Reporting Station
Clear Clear  
Wind Chill: 34°   Ceiling: Unl
Heat Index: 39°   Visibility: 10mi
Dew Point: 34°   Wind: 7mph
Humidity: 84%   Direction: 120°ESE
Pressure: 30.26"   Gusts: NA
Location:  41.9424°N, 89.0653°W
Report Text: KRPJ 230135Z AUTO 12006KT 10SM CLR 04/01 A3026 RMK AO2 T00370013
Loading
Personal Weather Stations






























Interactive Weather Map
Tropical Storm Tracking
New forecast layout! Learn more

10-Day Weather Forecast

Advertisements
Track Severe Weather on mobile